Time;durP1;ratioP1;P1;durP2;ratioP2;P2;SDS_P1;SDS_P2;PMS_P1;PMS_P2;Temp;Humidity;BMP_temperature;BMP_pressure;BME280_temperature;BME280_humidity;BME280_pressure;Samples;Min_cycle;Max_cycle;Signal;HPM_P1;HPM_P2
2022/05/25 00:01:00;;;;;;;9.60;3.30;;;12.30;99.90;;;;;;5052874;28;20192;-58
2022/05/25 00:03:27;;;;;;;7.37;3.70;;;12.30;99.90;;;;;;5053038;28;20616;-57
2022/05/25 00:05:54;;;;;;;10.03;4.43;;;12.30;99.90;;;;;;5052836;28;20202;-56
2022/05/25 00:08:19;;;;;;;11.87;4.20;;;12.30;99.90;;;;;;5053315;28;20194;-57
2022/05/25 00:10:45;;;;;;;8.80;4.13;;;12.30;99.90;;;;;;5053022;28;20196;-55
2022/05/25 00:13:11;;;;;;;8.17;3.93;;;12.20;99.90;;;;;;5051792;28;20709;-57
2022/05/25 00:15:36;;;;;;;8.47;4.50;;;12.20;99.90;;;;;;5053157;28;20615;-57
2022/05/25 00:18:03;;;;;;;11.20;5.20;;;12.20;99.90;;;;;;5052588;28;20216;-55
2022/05/25 00:20:29;;;;;;;8.47;4.90;;;12.10;99.90;;;;;;5053118;28;20183;-56
2022/05/25 00:22:57;;;;;;;17.30;5.13;;;12.00;99.90;;;;;;5052411;28;20286;-55
2022/05/25 00:25:30;;;;;;;13.83;5.80;;;12.00;99.90;;;;;;5052504;28;20558;-56
2022/05/25 00:27:56;;;;;;;8.27;5.13;;;11.90;99.90;;;;;;5052463;28;20177;-55
2022/05/25 00:30:24;;;;;;;11.17;5.87;;;11.90;99.90;;;;;;5052879;28;20189;-57
2022/05/25 00:32:50;;;;;;;10.13;6.10;;;11.90;99.90;;;;;;5052640;28;20206;-54
2022/05/25 00:35:19;;;;;;;10.70;6.03;;;11.90;99.90;;;;;;5052478;28;20629;-58
2022/05/25 00:37:46;;;;;;;14.93;5.57;;;11.90;99.90;;;;;;5052617;28;20176;-56
2022/05/25 00:40:15;;;;;;;13.43;5.67;;;11.80;99.90;;;;;;5052729;28;20215;-58
2022/05/25 00:42:40;;;;;;;13.13;6.33;;;11.80;99.90;;;;;;5052595;28;20212;-54
2022/05/25 00:45:07;;;;;;;15.70;6.30;;;11.90;99.90;;;;;;5052126;28;20239;-56
2022/05/25 00:47:34;;;;;;;12.20;5.80;;;11.80;99.90;;;;;;5051046;28;20221;-54
2022/05/25 00:50:00;;;;;;;15.27;6.03;;;11.80;99.90;;;;;;5051925;28;20187;-55
2022/05/25 00:52:27;;;;;;;15.07;6.13;;;11.70;99.90;;;;;;5052502;28;20182;-57
2022/05/25 00:55:00;;;;;;;12.33;5.53;;;11.70;99.90;;;;;;5051734;28;20699;-58
2022/05/25 00:57:39;;;;;;;12.17;6.10;;;11.60;99.90;;;;;;5052160;28;20186;-55
2022/05/25 01:00:12;;;;;;;16.77;6.37;;;11.60;99.90;;;;;;5052043;28;20508;-55
2022/05/25 01:02:44;;;;;;;16.23;6.23;;;11.50;99.90;;;;;;5052359;28;20189;-54
2022/05/25 01:05:12;;;;;;;11.07;5.83;;;11.50;99.90;;;;;;5052305;28;20210;-54
2022/05/25 01:07:59;;;;;;;11.30;6.00;;;11.50;99.90;;;;;;5051830;28;20542;-58
2022/05/25 01:10:43;;;;;;;12.37;5.30;;;11.40;99.90;;;;;;5052298;28;20174;-55
2022/05/25 01:13:27;;;;;;;10.97;5.97;;;11.30;99.90;;;;;;5052216;28;20250;-57
2022/05/25 01:16:17;;;;;;;12.43;5.97;;;11.30;99.90;;;;;;5052031;28;20193;-59
2022/05/25 01:19:04;;;;;;;9.93;5.70;;;11.20;99.90;;;;;;5052218;28;20177;-67
2022/05/25 01:21:48;;;;;;;11.97;5.87;;;11.20;99.90;;;;;;5051973;28;20296;-57
2022/05/25 01:24:25;;;;;;;12.93;6.30;;;11.30;99.90;;;;;;5052308;28;20250;-58
2022/05/25 01:27:17;;;;;;;12.73;5.93;;;11.20;99.90;;;;;;5051795;28;20280;-57
2022/05/25 01:30:18;;;;;;;12.80;6.13;;;11.20;99.90;;;;;;5052159;28;20269;-55
2022/05/25 01:33:08;;;;;;;19.37;6.53;;;11.10;99.90;;;;;;5051817;28;20176;-67
2022/05/25 01:35:49;;;;;;;12.00;6.40;;;11.10;99.90;;;;;;5052165;28;20200;-57
2022/05/25 01:38:35;;;;;;;12.37;6.20;;;11.00;99.90;;;;;;5051998;28;20287;-57
2022/05/25 01:41:02;;;;;;;13.10;6.77;;;11.00;99.90;;;;;;5051800;28;20612;-58
2022/05/25 01:43:57;;;;;;;13.73;6.80;;;10.90;99.90;;;;;;5051799;28;20260;-56
2022/05/25 01:46:31;;;;;;;12.93;7.10;;;10.80;99.90;;;;;;5051900;28;20196;-55
2022/05/25 01:48:57;;;;;;;14.70;7.20;;;10.70;99.90;;;;;;5051610;28;20174;-54
2022/05/25 01:51:32;;;;;;;19.13;6.93;;;10.60;99.90;;;;;;5051712;28;20700;-57
2022/05/25 01:54:00;;;;;;;15.40;6.57;;;10.50;99.90;;;;;;5051663;28;20206;-54
2022/05/25 01:56:30;;;;;;;20.80;7.53;;;10.50;99.90;;;;;;5051575;28;20204;-55
2022/05/25 01:59:00;;;;;;;14.37;6.73;;;10.40;99.90;;;;;;5051078;28;20177;-55
2022/05/25 02:01:26;;;;;;;19.73;8.27;;;10.40;99.90;;;;;;5051648;28;20182;-57
2022/05/25 02:06:48;;;;;;;13.27;7.83;;;10.40;99.90;;;;;;5051528;28;20188;-56
2022/05/25 02:09:30;;;;;;;22.37;7.13;;;10.40;99.90;;;;;;5051613;28;20180;-56
2022/05/25 02:12:01;;;;;;;13.87;6.67;;;10.40;99.90;;;;;;5051283;28;20626;-57
2022/05/25 02:14:51;;;;;;;15.60;7.27;;;10.40;99.90;;;;;;5051005;28;20636;-54
2022/05/25 02:17:40;;;;;;;12.47;6.83;;;10.30;99.90;;;;;;5051400;28;20164;-57
2022/05/25 02:20:30;;;;;;;15.87;7.27;;;10.30;99.90;;;;;;5051167;28;21014;-54
2022/05/25 02:23:02;;;;;;;12.90;7.50;;;10.30;99.90;;;;;;5050652;28;20341;-57
2022/05/25 02:25:35;;;;;;;17.23;7.17;;;10.20;99.90;;;;;;5051342;28;20194;-55
2022/05/25 02:28:09;;;;;;;20.03;7.50;;;10.20;99.90;;;;;;5050979;28;20249;-57
2022/05/25 02:30:40;;;;;;;13.13;7.30;;;10.20;99.90;;;;;;5051390;28;20263;-55
2022/05/25 02:33:13;;;;;;;14.00;6.63;;;10.20;99.90;;;;;;5051145;28;20178;-55
2022/05/25 02:35:42;;;;;;;14.60;7.63;;;10.20;99.90;;;;;;5051356;28;20212;-57
2022/05/25 02:38:09;;;;;;;13.80;7.70;;;10.20;99.90;;;;;;5051073;28;20170;-57
2022/05/25 02:40:38;;;;;;;25.37;9.40;;;10.20;99.90;;;;;;5051321;28;20194;-56
2022/05/25 02:43:07;;;;;;;14.37;7.37;;;10.20;99.90;;;;;;5051758;28;20182;-56
2022/05/25 02:45:34;;;;;;;25.40;7.73;;;10.20;99.90;;;;;;5054772;28;20209;-55
2022/05/25 02:48:00;;;;;;;16.97;7.67;;;10.30;99.90;;;;;;5054485;28;20515;-56
2022/05/25 02:50:26;;;;;;;20.07;7.90;;;10.30;99.90;;;;;;5054879;28;20185;-56
2022/05/25 02:52:52;;;;;;;20.07;8.37;;;10.30;99.90;;;;;;5054264;28;20186;-57
2022/05/25 02:55:19;;;;;;;29.90;9.07;;;10.30;99.90;;;;;;5053705;28;20230;-55
2022/05/25 02:57:45;;;;;;;20.40;8.77;;;10.40;99.90;;;;;;5054443;28;20264;-57
2022/05/25 03:00:11;;;;;;;16.80;7.03;;;10.40;99.90;;;;;;5054306;28;20185;-56
2022/05/25 03:02:38;;;;;;;13.47;7.33;;;10.40;99.90;;;;;;5054306;28;20539;-57
2022/05/25 03:05:05;;;;;;;15.00;7.33;;;10.40;99.90;;;;;;5054368;28;20600;-55
2022/05/25 03:07:31;;;;;;;12.93;7.03;;;10.50;99.90;;;;;;5054269;28;20181;-56
2022/05/25 03:09:57;;;;;;;15.30;7.47;;;10.50;99.90;;;;;;5053841;28;20638;-57
2022/05/25 03:12:23;;;;;;;15.37;7.40;;;10.60;99.90;;;;;;5054369;28;20265;-56
2022/05/25 03:14:48;;;;;;;14.63;8.23;;;10.60;99.90;;;;;;5054414;28;20187;-57
2022/05/25 03:17:14;;;;;;;19.43;7.77;;;10.70;99.90;;;;;;5053776;28;20174;-56
2022/05/25 03:19:41;;;;;;;12.33;7.60;;;10.70;99.90;;;;;;5054337;28;20174;-58
2022/05/25 03:22:07;;;;;;;21.23;8.70;;;10.70;99.90;;;;;;5053867;28;20259;-55
2022/05/25 03:24:33;;;;;;;19.03;8.10;;;10.90;99.90;;;;;;5053650;28;20225;-58
2022/05/25 03:26:59;;;;;;;19.00;8.17;;;11.00;99.90;;;;;;5053557;28;20177;-57
2022/05/25 03:29:26;;;;;;;20.53;8.87;;;11.10;99.90;;;;;;5053897;28;20217;-57
2022/05/25 03:31:52;;;;;;;17.90;8.07;;;11.20;99.90;;;;;;5053070;28;20748;-58
2022/05/25 03:34:18;;;;;;;15.07;7.60;;;11.30;99.90;;;;;;5053695;28;20180;-59
2022/05/25 03:36:45;;;;;;;17.70;9.27;;;11.30;99.90;;;;;;5053496;28;20197;-58
2022/05/25 03:39:11;;;;;;;20.50;8.47;;;11.50;99.90;;;;;;5052949;28;20180;-58
2022/05/25 03:41:37;;;;;;;15.77;8.03;;;11.50;99.90;;;;;;5053359;28;20207;-56
2022/05/25 03:44:03;;;;;;;10.43;7.13;;;11.50;99.90;;;;;;5053242;28;20235;-57
2022/05/25 03:46:29;;;;;;;16.07;8.40;;;11.50;99.90;;;;;;5051929;28;20194;-58
2022/05/25 03:48:55;;;;;;;23.10;8.37;;;11.60;99.90;;;;;;5052782;28;20534;-55
2022/05/25 03:51:21;;;;;;;19.53;8.20;;;11.70;99.90;;;;;;5053170;28;20236;-57
2022/05/25 03:53:49;;;;;;;17.30;8.80;;;11.80;99.90;;;;;;5053226;28;20188;-56
2022/05/25 03:56:16;;;;;;;15.73;8.23;;;11.90;99.90;;;;;;5053035;28;20639;-58
2022/05/25 03:58:43;;;;;;;17.93;7.63;;;12.00;99.90;;;;;;5052604;28;20185;-58
2022/05/25 04:01:09;;;;;;;21.83;9.00;;;12.10;99.90;;;;;;5052756;28;20231;-57
2022/05/25 04:03:35;;;;;;;26.00;7.90;;;12.20;99.90;;;;;;5053100;28;20188;-57
2022/05/25 04:06:00;;;;;;;16.57;7.70;;;12.20;99.90;;;;;;5052692;28;20178;-57
2022/05/25 04:08:26;;;;;;;16.67;8.57;;;12.30;99.90;;;;;;5052773;28;20184;-57
2022/05/25 04:10:52;;;;;;;16.97;7.30;;;12.40;99.90;;;;;;5053329;28;20178;-65
2022/05/25 04:13:20;;;;;;;15.87;7.77;;;12.50;99.90;;;;;;5052897;28;20273;-56
2022/05/25 04:15:46;;;;;;;13.27;7.87;;;12.60;99.90;;;;;;5052802;28;20230;-58
2022/05/25 04:18:11;;;;;;;26.07;9.33;;;12.70;99.90;;;;;;5052377;28;20196;-57
2022/05/25 04:20:37;;;;;;;18.30;8.40;;;12.80;99.90;;;;;;5052469;28;20184;-58
2022/05/25 04:23:07;;;;;;;18.00;7.47;;;13.00;99.90;;;;;;5051470;28;20230;-56
2022/05/25 04:25:33;;;;;;;15.63;7.37;;;13.10;99.90;;;;;;5050931;28;20255;-56
2022/05/25 04:27:59;;;;;;;10.80;7.40;;;13.20;99.90;;;;;;5052014;28;20174;-58
2022/05/25 04:30:28;;;;;;;23.23;8.67;;;13.30;99.90;;;;;;5052010;28;20275;-57
2022/05/25 04:32:55;;;;;;;48.10;10.30;;;13.40;99.90;;;;;;5051439;28;20572;-67
2022/05/25 04:35:21;;;;;;;17.17;7.87;;;13.50;99.90;;;;;;5050699;28;20181;-64
2022/05/25 04:37:52;;;;;;;20.37;7.80;;;13.60;99.90;;;;;;5052205;28;20211;-56
2022/05/25 04:40:25;;;;;;;20.20;10.87;;;13.70;99.90;;;;;;5051176;28;20257;-57
2022/05/25 04:42:52;;;;;;;20.17;6.87;;;13.90;99.90;;;;;;5051913;28;20170;-58
2022/05/25 04:45:19;;;;;;;10.93;6.43;;;14.00;99.90;;;;;;5051100;28;20280;-58
2022/05/25 04:47:45;;;;;;;28.20;8.73;;;14.10;99.90;;;;;;5051444;28;20185;-57
2022/05/25 04:50:13;;;;;;;15.33;7.37;;;14.30;99.90;;;;;;5051119;28;20269;-58
2022/05/25 04:52:39;;;;;;;21.23;7.87;;;14.40;99.90;;;;;;5050837;28;20190;-59
2022/05/25 04:55:07;;;;;;;19.50;7.40;;;14.60;99.90;;;;;;5051052;28;20182;-58
2022/05/25 04:57:33;;;;;;;18.80;7.83;;;14.80;99.90;;;;;;5051490;28;20240;-59
2022/05/25 05:00:00;;;;;;;24.33;8.00;;;14.90;99.90;;;;;;5050641;28;20178;-58
2022/05/25 05:02:27;;;;;;;43.90;27.40;;;15.10;99.90;;;;;;5050955;28;20186;-58
2022/05/25 05:04:53;;;;;;;19.50;8.50;;;15.20;99.90;;;;;;5050671;28;20309;-57
2022/05/25 05:07:28;;;;;;;21.90;7.20;;;15.40;99.90;;;;;;5044354;28;20277;-67
2022/05/25 05:09:53;;;;;;;23.40;7.40;;;15.50;99.90;;;;;;5050416;28;20267;-59
2022/05/25 05:12:19;;;;;;;21.70;7.07;;;15.60;99.90;;;;;;5048735;28;20392;-59
2022/05/25 05:14:45;;;;;;;17.20;6.40;;;15.70;99.90;;;;;;5050866;28;20823;-59
2022/05/25 05:17:10;;;;;;;23.10;9.33;;;15.70;99.90;;;;;;5050807;28;20186;-59
2022/05/25 05:19:36;;;;;;;16.23;7.93;;;15.90;99.90;;;;;;5050795;28;20182;-61
2022/05/25 05:22:02;;;;;;;23.70;7.83;;;16.10;99.90;;;;;;5050468;28;20188;-66
2022/05/25 05:24:30;;;;;;;11.77;7.30;;;16.30;99.90;;;;;;5050511;28;20308;-63
2022/05/25 05:26:58;;;;;;;20.70;8.53;;;16.50;99.90;;;;;;5050489;28;20202;-70
2022/05/25 05:29:26;;;;;;;21.03;9.40;;;16.60;99.90;;;;;;5051027;28;20243;-62
2022/05/25 05:31:52;;;;;;;19.53;7.13;;;16.70;99.90;;;;;;5051154;28;20178;-63
2022/05/25 05:34:18;;;;;;;16.37;7.07;;;16.70;99.90;;;;;;5050534;28;20244;-59
2022/05/25 05:36:59;;;;;;;15.43;7.87;;;16.70;99.90;;;;;;5045066;28;20566;-62
2022/05/25 05:39:29;;;;;;;14.03;7.33;;;16.70;99.90;;;;;;5051187;28;20193;-61
2022/05/25 05:42:05;;;;;;;20.00;8.53;;;16.60;99.90;;;;;;5059511;28;20688;-67
2022/05/25 05:44:36;;;;;;;17.33;8.20;;;16.50;99.90;;;;;;5066097;28;20708;-66
2022/05/25 05:47:05;;;;;;;19.53;8.20;;;16.40;99.90;;;;;;5059545;28;20623;-69
2022/05/25 05:49:31;;;;;;;19.80;6.83;;;16.40;99.90;;;;;;5059591;28;20200;-61
2022/05/25 05:51:56;;;;;;;14.10;7.40;;;16.40;99.90;;;;;;5050932;28;20482;-54
2022/05/25 05:54:22;;;;;;;21.73;7.63;;;16.40;99.90;;;;;;5047479;28;20200;-60
2022/05/25 05:56:48;;;;;;;26.57;8.20;;;16.50;99.90;;;;;;5052422;28;20197;-66
2022/05/25 05:59:14;;;;;;;17.13;7.53;;;16.70;99.90;;;;;;5054528;28;20590;-60
2022/05/25 06:01:42;;;;;;;18.37;8.13;;;16.90;99.90;;;;;;5049306;28;20686;-64
2022/05/25 06:04:09;;;;;;;16.63;7.03;;;17.00;99.90;;;;;;5033422;28;20305;-61
2022/05/25 06:06:34;;;;;;;21.17;8.47;;;17.10;99.90;;;;;;5064117;28;20204;-64
2022/05/25 06:09:01;;;;;;;12.77;7.43;;;17.10;99.90;;;;;;5061811;28;20187;-66
2022/05/25 06:11:26;;;;;;;19.93;7.33;;;17.20;99.90;;;;;;5063537;28;20183;-59
2022/05/25 06:13:52;;;;;;;24.67;11.90;;;17.30;99.90;;;;;;5063578;28;20280;-59
2022/05/25 06:21:47;;;;;;;17.03;8.77;;;17.70;99.90;;;;;;5048304;28;20201;-62
2022/05/25 06:24:13;;;;;;;19.63;10.23;;;17.90;99.90;;;;;;5068673;28;20592;-63
2022/05/25 06:26:38;;;;;;;18.43;8.80;;;18.00;99.90;;;;;;5073940;28;20299;-64
2022/05/25 06:29:04;;;;;;;17.70;8.70;;;18.10;99.90;;;;;;5072003;28;20602;-64
2022/05/25 06:31:32;;;;;;;25.30;9.93;;;18.20;99.90;;;;;;5062702;28;20247;-69
2022/05/25 06:33:58;;;;;;;26.63;10.70;;;18.40;99.90;;;;;;5057151;28;20192;-65
2022/05/25 06:36:26;;;;;;;25.60;9.20;;;18.50;99.90;;;;;;5067712;28;20288;-62
2022/05/25 06:38:53;;;;;;;13.43;8.17;;;18.60;99.90;;;;;;5053205;28;20208;-61
2022/05/25 06:41:19;;;;;;;20.47;7.90;;;18.80;99.90;;;;;;5063411;28;20205;-64
2022/05/25 06:43:45;;;;;;;18.37;7.67;;;18.80;99.90;;;;;;5073964;28;20193;-61
2022/05/25 06:46:13;;;;;;;18.50;8.50;;;18.90;99.90;;;;;;5073182;28;20189;-62
2022/05/25 06:48:39;;;;;;;24.70;7.93;;;19.00;99.90;;;;;;5070053;28;20231;-63
2022/05/25 06:51:18;;;;;;;16.30;8.20;;;19.10;99.90;;;;;;5053499;28;20244;-65
2022/05/25 06:53:44;;;;;;;25.67;9.37;;;19.20;99.90;;;;;;5069038;28;20237;-63
2022/05/25 06:56:10;;;;;;;15.07;8.57;;;19.20;99.90;;;;;;5069813;28;20223;-63
2022/05/25 06:58:36;;;;;;;19.30;9.47;;;19.10;99.90;;;;;;5054051;28;20214;-62
2022/05/25 07:01:03;;;;;;;16.73;8.83;;;19.30;99.90;;;;;;5052526;28;20236;-69
2022/05/25 07:03:30;;;;;;;24.92;9.40;;;19.40;99.90;;;;;;5053013;28;20175;-60
2022/05/25 07:05:55;;;;;;;22.77;8.70;;;19.40;99.90;;;;;;5051409;28;20227;-62
2022/05/25 07:08:21;;;;;;;18.95;8.80;;;19.40;99.90;;;;;;5053022;28;20240;-61
2022/05/25 07:10:47;;;;;;;17.30;7.47;;;19.70;99.90;;;;;;5053387;28;20213;-66
2022/05/25 07:13:14;;;;;;;12.27;7.28;;;19.90;99.90;;;;;;5052898;28;20182;-64
2022/05/25 07:15:40;;;;;;;15.20;7.95;;;20.20;99.90;;;;;;5052350;28;20328;-62
2022/05/25 07:18:06;;;;;;;12.43;8.52;;;20.40;99.90;;;;;;5051794;28;20182;-70
2022/05/25 07:20:32;;;;;;;13.05;8.05;;;20.60;99.90;;;;;;5051941;28;20231;-67
2022/05/25 07:22:58;;;;;;;11.88;8.35;;;20.70;99.90;;;;;;5037298;28;20242;-63
2022/05/25 07:25:24;;;;;;;24.73;8.88;;;20.90;99.90;;;;;;5031690;28;20222;-64
2022/05/25 07:27:49;;;;;;;22.83;10.18;;;21.10;99.90;;;;;;5030151;28;20191;-69
2022/05/25 07:30:16;;;;;;;22.80;9.65;;;21.40;99.90;;;;;;5030940;28;20535;-65
2022/05/25 07:32:43;;;;;;;19.98;9.57;;;21.60;99.40;;;;;;5033034;28;20225;-64
2022/05/25 07:35:12;;;;;;;15.27;9.52;;;21.80;99.10;;;;;;5032828;28;20181;-68
2022/05/25 07:37:40;;;;;;;18.65;8.25;;;21.90;98.50;;;;;;5048077;28;20183;-66
2022/05/25 07:40:11;;;;;;;20.73;9.20;;;21.90;98.40;;;;;;5052852;28;20193;-65
2022/05/25 07:42:40;;;;;;;30.63;7.80;;;22.10;98.40;;;;;;5052832;28;20619;-59
2022/05/25 07:45:07;;;;;;;20.40;8.13;;;22.10;97.40;;;;;;5052428;28;20228;-59
2022/05/25 07:47:34;;;;;;;25.00;7.25;;;22.30;97.00;;;;;;5052212;28;20665;-61
2022/05/25 07:50:00;;;;;;;15.93;6.85;;;22.30;96.60;;;;;;5052394;28;20243;-58
2022/05/25 07:52:29;;;;;;;13.13;6.50;;;22.60;96.50;;;;;;5051528;28;20189;-58
2022/05/25 07:54:56;;;;;;;32.22;8.02;;;22.70;95.30;;;;;;5050526;28;20359;-61
2022/05/25 07:57:22;;;;;;;18.95;8.63;;;22.60;95.30;;;;;;5050551;28;20256;-61
2022/05/25 07:59:48;;;;;;;21.70;6.53;;;22.60;95.80;;;;;;5052104;28;20187;-62
2022/05/25 08:07:47;;;;;;;10.27;5.22;;;23.00;94.60;;;;;;5052236;28;20554;-60
2022/05/25 08:10:17;;;;;;;10.18;5.15;;;23.10;93.90;;;;;;5052006;28;20603;-60
2022/05/25 08:12:45;;;;;;;11.48;5.63;;;23.20;93.50;;;;;;5052116;28;20174;-60
2022/05/25 08:15:12;;;;;;;13.07;5.40;;;23.00;93.20;;;;;;5051809;28;20281;-59
2022/05/25 08:17:39;;;;;;;16.75;5.10;;;23.10;93.30;;;;;;5051873;28;20194;-61
2022/05/25 08:20:05;;;;;;;9.65;5.22;;;23.20;93.70;;;;;;5049957;28;20202;-70
2022/05/25 08:22:31;;;;;;;14.52;6.00;;;23.40;92.80;;;;;;5050445;28;20249;-59
2022/05/25 08:24:57;;;;;;;17.27;5.72;;;23.50;93.20;;;;;;5052209;28;20202;-61
2022/05/25 08:27:24;;;;;;;21.45;5.45;;;23.60;91.90;;;;;;5051875;28;20186;-60
2022/05/25 08:29:49;;;;;;;18.75;5.90;;;23.70;91.40;;;;;;5050519;28;20556;-65
2022/05/25 08:32:15;;;;;;;12.02;4.95;;;24.00;91.30;;;;;;5051463;28;20194;-59
2022/05/25 08:34:41;;;;;;;16.65;5.22;;;24.10;91.00;;;;;;5050056;28;20193;-59
2022/05/25 08:37:07;;;;;;;13.60;5.25;;;24.10;88.70;;;;;;5051238;28;20277;-61
2022/05/25 08:39:33;;;;;;;16.15;4.95;;;24.10;90.20;;;;;;5051820;28;20199;-59
2022/05/25 08:42:04;;;;;;;10.75;5.03;;;24.20;89.60;;;;;;5050846;28;20185;-60
2022/05/25 08:44:31;;;;;;;12.30;5.15;;;24.30;88.70;;;;;;5051518;28;20207;-61
2022/05/25 08:47:00;;;;;;;10.52;5.45;;;24.40;89.00;;;;;;5051100;28;20629;-59
2022/05/25 08:49:31;;;;;;;10.80;5.00;;;24.60;89.40;;;;;;5050723;28;20595;-60
2022/05/25 08:52:01;;;;;;;11.60;4.95;;;24.90;89.20;;;;;;5051243;28;20186;-61
2022/05/25 08:54:29;;;;;;;22.73;5.70;;;24.90;88.10;;;;;;5049571;28;20189;-60
2022/05/25 08:57:15;;;;;;;22.63;5.82;;;25.20;88.40;;;;;;5050867;28;20610;-59
2022/05/25 09:00:07;;;;;;;12.63;4.68;;;25.30;85.40;;;;;;5050744;28;20170;-60
2022/05/25 09:03:00;;;;;;;20.10;5.40;;;25.30;85.60;;;;;;5050634;28;20201;-62
2022/05/25 09:05:34;;;;;;;13.10;5.50;;;25.20;84.80;;;;;;5050270;28;20210;-61
2022/05/25 09:08:24;;;;;;;13.18;6.30;;;25.50;84.90;;;;;;5050590;28;20209;-59
2022/05/25 09:11:01;;;;;;;10.88;5.68;;;25.70;82.40;;;;;;5051072;28;20246;-60
2022/05/25 09:13:30;;;;;;;16.83;5.43;;;26.00;82.80;;;;;;5050337;28;20178;-60
2022/05/25 09:19:09;;;;;;;11.60;4.10;;;25.90;78.40;;;;;;5050948;28;20252;-59
2022/05/25 09:21:47;;;;;;;12.70;4.25;;;25.70;80.00;;;;;;5047777;28;20642;-60
2022/05/25 09:24:18;;;;;;;12.50;4.05;;;25.50;81.20;;;;;;5049822;28;20230;-59
2022/05/25 09:26:43;;;;;;;12.77;4.32;;;25.50;78.10;;;;;;5050580;28;20214;-60
2022/05/25 09:29:11;;;;;;;8.07;4.18;;;25.40;78.30;;;;;;5049700;28;20213;-61
2022/05/25 09:31:42;;;;;;;9.65;4.78;;;25.50;78.40;;;;;;5049297;28;20187;-60
2022/05/25 09:34:13;;;;;;;17.42;6.22;;;25.80;76.90;;;;;;5050552;28;20186;-68
2022/05/25 09:36:54;;;;;;;6.05;3.35;;;25.70;76.20;;;;;;5050545;28;20631;-59
2022/05/25 09:39:42;;;;;;;15.10;4.22;;;25.70;75.10;;;;;;5050264;28;20185;-60
2022/05/25 09:42:18;;;;;;;10.55;4.57;;;25.50;75.40;;;;;;5050693;28;20664;-63
2022/05/25 09:44:53;;;;;;;16.35;3.72;;;25.40;74.90;;;;;;5050580;28;20241;-61
2022/05/25 09:47:27;;;;;;;14.82;3.60;;;25.40;74.20;;;;;;5050416;28;20273;-61
2022/05/25 09:49:57;;;;;;;8.48;3.58;;;25.30;74.60;;;;;;5050034;28;20519;-61
2022/05/25 09:52:36;;;;;;;9.68;3.95;;;25.30;74.40;;;;;;5051036;28;20204;-60
2022/05/25 09:55:09;;;;;;;9.57;3.15;;;25.50;72.20;;;;;;5053983;28;20177;-60
2022/05/25 09:57:50;;;;;;;6.95;3.20;;;25.50;72.80;;;;;;5054148;28;20162;-60
2022/05/25 10:00:22;;;;;;;9.30;3.60;;;25.70;70.80;;;;;;5054120;28;20253;-61
2022/05/25 10:03:06;;;;;;;14.88;4.10;;;26.00;73.80;;;;;;5054468;28;20181;-60
2022/05/25 10:05:47;;;;;;;11.38;5.60;;;26.10;74.50;;;;;;5053754;28;20301;-60
2022/05/25 10:08:20;;;;;;;11.90;4.53;;;26.20;75.00;;;;;;5053771;28;20225;-62
2022/05/25 10:10:56;;;;;;;9.38;4.45;;;26.10;73.60;;;;;;5052388;28;20171;-62
2022/05/25 10:13:28;;;;;;;13.30;4.50;;;26.40;73.50;;;;;;5053489;28;20200;-59
2022/05/25 10:15:54;;;;;;;15.15;5.57;;;26.60;73.40;;;;;;5052394;28;20213;-60
2022/05/25 10:18:36;;;;;;;10.73;4.25;;;26.50;72.40;;;;;;5053840;28;20205;-60
2022/05/25 10:21:04;;;;;;;14.18;4.63;;;26.30;71.30;;;;;;5052975;28;20228;-61
2022/05/25 10:23:31;;;;;;;12.13;4.28;;;26.30;70.40;;;;;;5053597;28;20249;-60
2022/05/25 10:26:19;;;;;;;14.80;5.28;;;26.40;69.80;;;;;;5054121;28;20210;-60
2022/05/25 10:28:57;;;;;;;7.05;3.25;;;26.60;70.20;;;;;;5054408;28;20508;-60
2022/05/25 10:37:13;;;;;;;11.27;4.25;;;26.80;67.80;;;;;;5053297;28;20192;-61
2022/05/25 10:39:59;;;;;;;12.55;3.55;;;26.90;67.30;;;;;;5053466;28;20170;-59
2022/05/25 10:42:45;;;;;;;8.30;3.88;;;26.80;66.70;;;;;;5053600;28;20194;-61
2022/05/25 10:45:19;;;;;;;10.07;4.22;;;27.20;66.50;;;;;;5052900;28;20203;-60
2022/05/25 10:47:57;;;;;;;6.07;3.85;;;27.20;65.80;;;;;;5053563;28;20193;-62
2022/05/25 10:50:32;;;;;;;10.98;4.00;;;27.40;64.50;;;;;;5052582;28;20166;-61
2022/05/25 10:53:09;;;;;;;5.95;3.60;;;27.50;64.10;;;;;;5053328;28;20580;-59
2022/05/25 10:55:48;;;;;;;18.42;4.07;;;27.60;64.00;;;;;;5053070;28;20610;-60
2022/05/25 10:58:52;;;;;;;7.68;2.97;;;27.70;62.30;;;;;;5053090;28;20158;-61
2022/05/25 11:01:33;;;;;;;7.45;4.55;;;28.10;60.60;;;;;;5051789;28;20669;-60
2022/05/25 11:04:01;;;;;;;3.67;2.75;;;28.10;61.00;;;;;;5051191;28;20608;-60
2022/05/25 11:06:37;;;;;;;9.27;3.55;;;28.40;61.00;;;;;;5052828;28;20193;-59
2022/05/25 11:09:02;;;;;;;8.55;3.65;;;28.70;60.80;;;;;;5053436;28;20181;-59
2022/05/25 11:12:12;;;;;;;12.63;3.97;;;28.60;59.60;;;;;;5052775;28;20182;-60
2022/05/25 11:14:49;;;;;;;7.15;2.97;;;28.60;59.50;;;;;;5033108;28;20623;-61
2022/05/25 11:17:41;;;;;;;9.05;3.20;;;28.40;59.30;;;;;;5032795;28;20177;-62
2022/05/25 11:20:22;;;;;;;21.67;4.28;;;28.70;58.50;;;;;;5033262;28;20167;-65
2022/05/25 11:23:05;;;;;;;18.50;3.90;;;29.00;57.90;;;;;;5033340;28;20234;-61
2022/05/25 11:26:07;;;;;;;5.78;2.65;;;29.90;56.30;;;;;;5032477;28;20206;-61
2022/05/25 11:28:51;;;;;;;8.07;3.75;;;32.10;53.80;;;;;;5032757;28;20179;-60
2022/05/25 11:31:29;;;;;;;12.57;3.47;;;34.00;50.50;;;;;;5032652;28;20551;-61
2022/05/25 11:34:23;;;;;;;10.65;3.40;;;35.20;47.60;;;;;;5032719;28;20167;-62
2022/05/25 11:36:57;;;;;;;10.85;3.42;;;35.00;46.40;;;;;;5040916;28;20232;-60
2022/05/25 11:39:29;;;;;;;7.50;3.28;;;35.00;45.50;;;;;;5052589;28;20181;-60
2022/05/25 11:42:03;;;;;;;7.70;3.10;;;35.00;44.90;;;;;;5051632;28;20182;-60
2022/05/25 11:44:52;;;;;;;5.18;2.55;;;34.50;44.40;;;;;;5052763;28;20288;-60
2022/05/25 11:47:36;;;;;;;5.78;3.08;;;34.40;44.70;;;;;;5051131;28;20178;-62
2022/05/25 11:50:34;;;;;;;17.20;3.58;;;34.10;45.10;;;;;;5052286;28;20182;-60
2022/05/25 11:53:18;;;;;;;10.50;2.85;;;34.70;45.70;;;;;;5052367;28;20629;-60
2022/05/25 11:56:09;;;;;;;8.50;3.08;;;36.10;44.50;;;;;;5050702;28;20590;-60
2022/05/25 11:59:07;;;;;;;11.15;3.17;;;36.40;42.30;;;;;;5052374;28;20173;-61
2022/05/25 12:02:08;;;;;;;6.82;2.60;;;35.90;41.70;;;;;;5052370;28;20580;-61
2022/05/25 12:04:55;;;;;;;7.07;2.78;;;35.50;41.40;;;;;;5051664;28;20294;-61
2022/05/25 12:07:40;;;;;;;8.18;3.20;;;34.80;42.40;;;;;;5050201;28;20178;-61
2022/05/25 12:10:28;;;;;;;9.43;3.17;;;33.80;43.00;;;;;;5051898;28;20186;-60
2022/05/25 12:12:58;;;;;;;9.65;2.60;;;33.70;44.10;;;;;;5051280;28;20183;-60
2022/05/25 12:15:34;;;;;;;11.48;3.10;;;34.30;43.20;;;;;;5051543;28;20539;-61
2022/05/25 12:18:06;;;;;;;13.10;3.97;;;35.30;42.40;;;;;;5052342;28;20173;-60
2022/05/25 12:20:32;;;;;;;5.60;2.97;;;36.80;39.80;;;;;;5050523;28;20170;-61
2022/05/25 12:23:05;;;;;;;9.40;2.92;;;36.80;39.50;;;;;;5051832;28;20695;-61
2022/05/25 12:25:33;;;;;;;12.75;7.03;;;37.30;39.00;;;;;;5050242;28;20221;-60
2022/05/25 12:28:01;;;;;;;10.52;6.32;;;38.20;38.70;;;;;;5050902;28;20181;-61
2022/05/25 12:30:40;;;;;;;6.57;3.50;;;39.60;37.60;;;;;;5051884;28;20305;-60
2022/05/25 12:33:09;;;;;;;7.70;2.90;;;40.30;36.70;;;;;;5051943;28;20634;-61
2022/05/25 12:35:39;;;;;;;24.25;5.18;;;38.60;37.10;;;;;;5051688;28;20171;-60
2022/05/25 12:38:07;;;;;;;10.30;2.90;;;35.90;39.20;;;;;;5051669;28;20204;-61
2022/05/25 12:40:48;;;;;;;7.90;3.42;;;34.60;40.90;;;;;;5051803;28;20189;-64
2022/05/25 12:43:39;;;;;;;9.35;2.63;;;34.20;42.00;;;;;;5050409;28;20614;-60
2022/05/25 12:49:04;;;;;;;14.50;2.72;;;32.80;43.90;;;;;;5051601;28;20220;-59
2022/05/25 12:51:39;;;;;;;10.38;3.42;;;33.20;44.10;;;;;;5051222;28;20223;-59
2022/05/25 12:54:20;;;;;;;8.48;2.90;;;33.30;44.30;;;;;;5051443;28;20186;-62
2022/05/25 12:56:47;;;;;;;9.45;2.95;;;32.90;44.00;;;;;;5051540;28;20607;-60
2022/05/25 12:59:26;;;;;;;10.18;3.47;;;32.50;45.10;;;;;;5046350;28;20190;-60
2022/05/25 13:02:19;;;;;;;9.68;3.17;;;32.60;44.90;;;;;;5046678;28;20266;-59
2022/05/25 13:04:49;;;;;;;10.52;3.10;;;32.30;45.50;;;;;;5049225;28;20210;-61
2022/05/25 13:07:47;;;;;;;16.52;3.60;;;33.10;45.30;;;;;;5041125;28;20601;-59
2022/05/25 13:10:20;;;;;;;6.60;2.58;;;35.30;42.50;;;;;;5045557;28;20612;-62
2022/05/25 13:12:49;;;;;;;11.07;3.50;;;37.20;40.30;;;;;;5050465;28;20220;-61
2022/05/25 13:15:14;;;;;;;9.90;3.53;;;38.60;39.50;;;;;;5050794;28;20194;-61
2022/05/25 13:18:01;;;;;;;13.55;3.40;;;39.60;37.90;;;;;;5051564;28;20609;-61
2022/05/25 13:20:30;;;;;;;19.25;4.65;;;40.70;36.50;;;;;;5053048;28;20212;-60
2022/05/25 13:23:01;;;;;;;10.10;3.22;;;41.20;35.70;;;;;;5063065;28;20229;-61
2022/05/25 13:25:47;;;;;;;8.95;3.50;;;41.80;35.60;;;;;;5059918;28;20225;-60
2022/05/25 13:28:31;;;;;;;4.65;2.38;;;41.90;35.30;;;;;;5063087;28;20179;-61